Time;durP1;ratioP1;P1;durP2;ratioP2;P2;SDS_P1;SDS_P2;PMS_P1;PMS_P2;Temp;Humidity;BMP_temperature;BMP_pressure;BME280_temperature;BME280_humidity;BME280_pressure;Samples;Min_cycle;Max_cycle;Signal;HPM_P1;HPM_P2
2022/05/06 04:02:15;;;;;;;10.70;8.75;;;7.80;99.90;;;;;;5145020;23;20267;-70
2022/05/06 04:04:42;;;;;;;13.73;10.00;;;7.80;99.90;;;;;;4986414;28;20212;-70
2022/05/06 04:07:08;;;;;;;13.43;9.10;;;7.80;99.90;;;;;;4989949;28;20464;-69
2022/05/06 04:09:35;;;;;;;13.23;10.63;;;7.80;99.90;;;;;;4990753;28;20212;-70
2022/05/06 04:12:02;;;;;;;10.65;9.32;;;7.80;99.90;;;;;;4990942;28;20240;-70
2022/05/06 04:14:29;;;;;;;12.75;9.55;;;7.80;99.90;;;;;;4992501;28;20219;-70
2022/05/06 04:16:55;;;;;;;11.50;9.27;;;7.80;99.90;;;;;;4990763;28;20259;-70
2022/05/06 04:19:23;;;;;;;10.85;8.73;;;7.80;99.90;;;;;;4990835;28;20281;-70
2022/05/06 04:24:34;;;;;;;13.40;8.38;;;7.80;99.90;;;;;;4990755;28;20346;-70
2022/05/06 04:27:01;;;;;;;11.88;8.50;;;7.90;99.90;;;;;;4990431;28;20274;-70
2022/05/06 04:29:28;;;;;;;13.07;9.50;;;7.90;99.90;;;;;;4990320;28;20208;-70
2022/05/06 04:31:55;;;;;;;12.40;8.82;;;7.90;99.90;;;;;;4990144;28;20227;-70
2022/05/06 04:34:23;;;;;;;16.83;9.85;;;8.00;99.90;;;;;;4990814;28;20208;-70
2022/05/06 04:36:49;;;;;;;13.70;9.00;;;8.30;99.90;;;;;;4989748;28;20220;-70
2022/05/06 04:39:16;;;;;;;13.52;9.18;;;8.60;99.90;;;;;;4991567;28;20234;-70
2022/05/06 04:41:45;;;;;;;13.30;9.55;;;8.90;99.90;;;;;;4993384;28;20250;-70
2022/05/06 04:44:12;;;;;;;9.68;8.63;;;9.30;99.90;;;;;;4994169;28;20314;-70
2022/05/06 04:46:38;;;;;;;12.32;10.30;;;9.60;99.90;;;;;;4993826;28;20232;-70
2022/05/06 04:49:05;;;;;;;9.70;8.38;;;10.10;99.90;;;;;;4994090;28;20211;-70
2022/05/06 04:51:33;;;;;;;10.70;9.60;;;10.60;99.90;;;;;;4992280;28;20289;-70
2022/05/06 04:54:00;;;;;;;11.43;9.60;;;11.20;99.90;;;;;;4991297;28;20964;-70
2022/05/06 04:56:27;;;;;;;9.37;8.37;;;11.80;99.90;;;;;;4993440;28;20517;-70
2022/05/06 04:58:53;;;;;;;10.27;8.87;;;12.20;99.90;;;;;;4994178;28;20811;-70
2022/05/06 05:01:20;;;;;;;9.80;8.80;;;12.60;99.90;;;;;;4992782;28;21030;-70
2022/05/06 05:03:46;;;;;;;9.40;8.50;;;13.00;99.90;;;;;;4993740;28;20863;-69
2022/05/06 05:06:13;;;;;;;10.47;9.37;;;13.20;99.90;;;;;;4992712;28;20832;-69
2022/05/06 05:08:41;;;;;;;11.20;10.00;;;13.10;99.90;;;;;;4993596;28;20805;-70
2022/05/06 05:11:08;;;;;;;14.03;11.27;;;12.70;99.90;;;;;;4992621;28;20520;-70
2022/05/06 05:13:38;;;;;;;10.70;9.50;;;12.40;99.90;;;;;;4993681;28;20467;-69
2022/05/06 05:16:05;;;;;;;12.70;10.63;;;12.10;99.90;;;;;;4993338;28;20561;-69
2022/05/06 05:18:32;;;;;;;14.60;11.87;;;11.90;99.90;;;;;;4993489;28;20572;-70
2022/05/06 05:20:59;;;;;;;12.20;10.90;;;11.70;99.90;;;;;;4992253;28;20491;-70
2022/05/06 05:23:25;;;;;;;14.20;9.83;;;11.60;99.90;;;;;;4992914;28;20517;-69
2022/05/06 05:25:53;;;;;;;13.37;9.67;;;11.50;99.90;;;;;;4992917;28;20471;-70
2022/05/06 05:28:20;;;;;;;17.40;11.93;;;11.30;99.90;;;;;;4993051;28;20491;-69
2022/05/06 05:30:47;;;;;;;16.40;11.63;;;11.30;99.90;;;;;;4992420;28;20483;-70
2022/05/06 05:33:14;;;;;;;15.63;12.15;;;11.20;99.90;;;;;;4992985;28;20805;-69
2022/05/06 05:35:41;;;;;;;16.63;12.37;;;11.20;99.90;;;;;;4992778;28;20275;-69
2022/05/06 05:38:09;;;;;;;16.35;11.82;;;11.20;99.90;;;;;;4992682;28;20475;-71
2022/05/06 05:40:35;;;;;;;16.58;12.75;;;11.10;99.90;;;;;;4993698;28;20259;-70
2022/05/06 05:43:04;;;;;;;22.02;12.95;;;11.00;99.90;;;;;;4987193;28;20674;-70
2022/05/06 05:48:21;;;;;;;19.95;12.32;;;11.00;99.90;;;;;;4992834;28;20242;-71
2022/05/06 05:50:48;;;;;;;22.80;12.77;;;11.00;99.90;;;;;;4990908;28;20730;-71
2022/05/06 05:53:15;;;;;;;18.48;12.77;;;11.00;99.90;;;;;;4992520;28;20204;-70
2022/05/06 05:55:42;;;;;;;20.42;14.05;;;11.00;99.90;;;;;;4992712;28;20698;-70
2022/05/06 05:58:10;;;;;;;23.05;14.45;;;11.00;99.90;;;;;;4992550;28;20621;-70
2022/05/06 06:00:37;;;;;;;19.73;13.23;;;11.20;99.90;;;;;;4992002;28;20763;-70
2022/05/06 06:03:03;;;;;;;15.43;11.90;;;12.10;99.90;;;;;;4992603;28;20524;-70
2022/05/06 06:05:30;;;;;;;16.30;12.13;;;13.10;99.90;;;;;;4992404;28;20474;-70
2022/05/06 06:07:57;;;;;;;12.93;10.60;;;14.10;99.90;;;;;;4992136;28;20486;-70
2022/05/06 06:10:23;;;;;;;16.10;12.50;;;14.90;99.90;;;;;;4991928;28;20490;-71
2022/05/06 06:12:50;;;;;;;13.27;11.90;;;15.80;99.90;;;;;;4992942;28;20463;-70
2022/05/06 06:15:18;;;;;;;13.63;11.27;;;16.40;99.90;;;;;;4992496;28;20462;-71
2022/05/06 06:17:45;;;;;;;12.57;11.37;;;17.00;99.90;;;;;;4992098;28;20471;-71
2022/05/06 06:20:12;;;;;;;12.13;11.10;;;17.50;99.90;;;;;;4989292;28;20471;-71
2022/05/06 06:22:39;;;;;;;13.17;11.90;;;18.10;99.90;;;;;;4991435;28;20865;-71
2022/05/06 06:25:07;;;;;;;13.67;12.20;;;18.50;99.90;;;;;;4992477;28;20469;-71
2022/05/06 06:27:34;;;;;;;14.00;12.20;;;18.60;99.90;;;;;;4992210;28;20489;-71
2022/05/06 06:30:00;;;;;;;14.47;11.77;;;19.00;99.90;;;;;;4991752;28;20570;-71
2022/05/06 06:32:28;;;;;;;14.00;12.70;;;19.50;99.90;;;;;;4991711;28;20486;-71
2022/05/06 06:34:55;;;;;;;15.00;13.50;;;19.90;99.90;;;;;;4992133;28;20511;-71
2022/05/06 06:37:25;;;;;;;13.23;11.90;;;19.50;99.90;;;;;;4991079;28;20662;-71
2022/05/06 06:39:52;;;;;;;13.90;12.50;;;19.70;99.90;;;;;;4991373;28;20516;-71
2022/05/06 06:42:19;;;;;;;14.13;12.77;;;20.00;99.90;;;;;;4991810;28;20488;-71
2022/05/06 06:44:45;;;;;;;11.77;10.63;;;20.50;99.90;;;;;;4991919;28;20466;-71
2022/05/06 06:47:13;;;;;;;13.37;11.97;;;20.70;99.90;;;;;;4991674;28;20485;-71
2022/05/06 06:49:41;;;;;;;13.77;12.47;;;21.00;99.90;;;;;;4991282;28;20470;-71
2022/05/06 06:52:08;;;;;;;13.40;12.10;;;21.20;99.90;;;;;;4990866;28;21061;-71
2022/05/06 06:54:35;;;;;;;12.83;11.70;;;21.50;99.90;;;;;;5004014;28;20468;-72
2022/05/06 06:57:02;;;;;;;13.30;11.40;;;21.70;99.90;;;;;;5015170;28;20463;-71
2022/05/06 06:59:28;;;;;;;12.43;11.40;;;21.90;99.90;;;;;;5015739;28;20495;-72
2022/05/06 07:01:55;;;;;;;14.20;12.90;;;22.10;99.90;;;;;;5014800;28;20492;-71
2022/05/06 07:04:22;;;;;;;13.40;12.20;;;22.20;99.90;;;;;;5005661;28;20472;-72
2022/05/06 07:12:18;;;;;;;13.60;12.40;;;22.30;99.90;;;;;;4991674;28;20464;-72
2022/05/06 07:14:44;;;;;;;12.87;11.87;;;22.10;99.30;;;;;;4991692;28;20516;-72
2022/05/06 07:17:13;;;;;;;12.40;11.40;;;22.20;99.70;;;;;;4991387;28;20468;-71
2022/05/06 07:19:40;;;;;;;12.50;11.40;;;22.10;99.30;;;;;;4990770;28;20469;-71
2022/05/06 07:22:08;;;;;;;12.70;11.50;;;22.20;99.10;;;;;;4990425;28;20488;-72
2022/05/06 07:24:35;;;;;;;11.17;10.27;;;22.40;98.80;;;;;;4991146;28;20473;-71
2022/05/06 07:27:01;;;;;;;12.00;11.00;;;22.50;98.40;;;;;;4991273;28;20851;-71
2022/05/06 07:29:28;;;;;;;12.67;11.60;;;22.40;98.10;;;;;;4991480;28;20465;-71
2022/05/06 07:31:55;;;;;;;14.27;12.97;;;21.80;97.80;;;;;;4991067;28;20625;-71
2022/05/06 07:34:21;;;;;;;12.90;11.67;;;21.50;99.10;;;;;;4991671;28;20477;-71
2022/05/06 07:36:48;;;;;;;13.13;11.87;;;21.10;99.50;;;;;;4990401;28;20980;-71
2022/05/06 07:39:16;;;;;;;14.37;11.77;;;20.80;99.90;;;;;;4991081;28;20579;-71
2022/05/06 07:41:44;;;;;;;12.47;11.23;;;20.50;99.90;;;;;;4990760;28;20483;-71
2022/05/06 07:44:10;;;;;;;12.30;10.10;;;20.20;99.90;;;;;;4985443;28;20466;-71
2022/05/06 07:46:38;;;;;;;13.00;10.80;;;19.90;99.90;;;;;;4991175;28;20525;-71
2022/05/06 07:49:06;;;;;;;16.17;10.50;;;19.70;99.90;;;;;;4991312;28;20537;-70
2022/05/06 07:51:33;;;;;;;12.73;10.10;;;19.50;99.90;;;;;;4989702;28;20549;-70
2022/05/06 07:54:00;;;;;;;12.70;10.87;;;19.20;99.90;;;;;;4991551;28;20477;-69
2022/05/06 07:56:29;;;;;;;11.30;10.10;;;19.00;99.90;;;;;;4991266;28;20459;-70
2022/05/06 07:58:57;;;;;;;13.73;10.60;;;18.90;99.90;;;;;;4991254;28;20557;-71
2022/05/06 08:04:32;;;;;;;10.23;8.53;;;18.80;99.90;;;;;;4990205;28;20581;-70
2022/05/06 08:06:56;;;;;;;10.50;9.40;;;18.60;99.90;;;;;;4990039;28;20454;-69
2022/05/06 08:09:22;;;;;;;9.70;8.60;;;18.30;99.90;;;;;;4991022;28;20569;-70
2022/05/06 08:11:51;;;;;;;9.23;8.33;;;18.20;99.90;;;;;;4990603;28;20539;-70
2022/05/06 08:14:19;;;;;;;9.87;8.87;;;18.10;99.90;;;;;;4992146;28;20994;-70
2022/05/06 08:16:46;;;;;;;10.90;9.60;;;18.00;99.90;;;;;;4994798;28;20984;-70
2022/05/06 08:19:14;;;;;;;10.63;9.53;;;17.80;99.90;;;;;;4992528;28;20493;-70
2022/05/06 08:21:40;;;;;;;9.07;8.17;;;17.90;99.90;;;;;;4985027;28;20482;-70
2022/05/06 08:24:08;;;;;;;9.37;8.40;;;17.80;99.90;;;;;;4994648;28;20462;-70
2022/05/06 08:26:35;;;;;;;8.93;8.03;;;17.80;99.90;;;;;;4994259;28;20467;-70
2022/05/06 08:29:04;;;;;;;8.90;7.77;;;17.70;99.90;;;;;;4994274;28;20544;-70
2022/05/06 08:31:37;;;;;;;13.07;9.03;;;17.70;99.90;;;;;;4993949;28;20582;-70
2022/05/06 08:34:04;;;;;;;9.93;8.30;;;17.60;99.90;;;;;;4994739;28;20514;-70
2022/05/06 08:36:31;;;;;;;8.37;7.37;;;17.70;99.90;;;;;;4993636;28;20474;-70
2022/05/06 08:38:58;;;;;;;13.83;8.83;;;17.70;99.90;;;;;;4994412;28;20462;-71
2022/05/06 08:41:25;;;;;;;8.60;7.80;;;17.80;99.90;;;;;;4993540;28;20517;-70
2022/05/06 08:43:52;;;;;;;9.00;8.10;;;17.80;99.90;;;;;;4995033;28;20470;-70
2022/05/06 08:51:55;;;;;;;10.20;7.23;;;17.70;99.90;;;;;;4992563;28;20470;-71
2022/05/06 08:54:23;;;;;;;9.10;6.63;;;17.80;99.90;;;;;;4993976;28;20838;-70
2022/05/06 08:56:50;;;;;;;7.93;6.83;;;17.80;99.90;;;;;;4994058;28;20521;-71
2022/05/06 08:59:16;;;;;;;7.40;6.67;;;17.80;99.90;;;;;;4994088;28;20546;-71
2022/05/06 09:01:44;;;;;;;6.67;6.10;;;17.90;99.90;;;;;;4993024;28;20541;-71
2022/05/06 09:04:11;;;;;;;9.97;7.40;;;17.90;99.90;;;;;;4993946;28;20593;-71
2022/05/06 09:06:38;;;;;;;9.30;6.87;;;17.80;99.90;;;;;;4992560;28;20459;-71
2022/05/06 09:09:05;;;;;;;8.30;7.07;;;17.80;99.90;;;;;;4993539;28;20498;-70
2022/05/06 09:14:17;;;;;;;7.50;6.80;;;17.80;99.90;;;;;;4993626;28;20541;-70
2022/05/06 09:16:46;;;;;;;7.23;6.53;;;17.70;99.90;;;;;;4993334;28;20466;-70
2022/05/06 09:19:20;;;;;;;7.67;6.90;;;17.70;99.90;;;;;;4998421;28;20467;-70
2022/05/06 09:22:05;;;;;;;6.63;5.97;;;17.80;99.90;;;;;;5012825;28;20490;-70
2022/05/06 09:24:33;;;;;;;6.97;6.30;;;17.70;99.90;;;;;;5013105;28;20490;-70
2022/05/06 09:27:01;;;;;;;7.97;7.27;;;17.80;99.90;;;;;;5012869;28;20462;-71
2022/05/06 09:29:29;;;;;;;6.63;5.97;;;17.90;99.90;;;;;;5013369;28;20514;-69
2022/05/06 09:32:13;;;;;;;7.00;6.40;;;18.00;99.90;;;;;;5012148;28;20495;-69
2022/05/06 09:34:40;;;;;;;7.87;6.87;;;18.20;99.90;;;;;;5012828;28;20462;-71
2022/05/06 09:37:07;;;;;;;6.80;6.23;;;18.30;99.90;;;;;;5012376;28;20442;-70
2022/05/06 09:39:36;;;;;;;8.53;7.13;;;18.40;99.90;;;;;;5012711;28;20490;-70
2022/05/06 09:42:05;;;;;;;7.67;6.90;;;18.40;99.90;;;;;;5012888;28;20463;-70
2022/05/06 09:44:33;;;;;;;10.73;7.40;;;18.50;99.90;;;;;;5004888;28;20462;-69
2022/05/06 09:47:11;;;;;;;8.13;7.40;;;18.60;99.90;;;;;;5010972;28;20462;-70
2022/05/06 09:49:41;;;;;;;8.20;7.40;;;18.70;99.90;;;;;;5005604;28;20895;-71
2022/05/06 09:52:12;;;;;;;8.17;7.37;;;18.60;99.90;;;;;;5007311;28;20487;-71
2022/05/06 09:54:42;;;;;;;9.67;8.13;;;18.60;99.90;;;;;;5011659;28;20463;-71
2022/05/06 09:57:10;;;;;;;8.20;7.40;;;18.50;99.90;;;;;;5010413;28;20497;-71
2022/05/06 09:59:37;;;;;;;8.50;7.70;;;18.30;99.90;;;;;;5008368;28;20459;-71
2022/05/06 10:02:05;;;;;;;8.00;7.20;;;18.40;99.90;;;;;;5010171;28;20553;-70
2022/05/06 10:04:33;;;;;;;8.97;8.17;;;18.50;99.90;;;;;;5010260;28;20771;-70
2022/05/06 10:07:01;;;;;;;9.87;8.70;;;18.60;99.90;;;;;;5009582;28;20463;-71
2022/05/06 10:09:30;;;;;;;9.43;8.00;;;18.70;99.90;;;;;;5010367;28;20494;-71
2022/05/06 10:12:00;;;;;;;8.77;7.97;;;18.90;99.90;;;;;;5009659;28;20514;-71
2022/05/06 10:14:27;;;;;;;7.60;6.73;;;19.00;99.90;;;;;;4996003;23;20516;-70
2022/05/06 10:16:54;;;;;;;7.17;6.57;;;18.90;99.90;;;;;;4973028;28;20531;-70
2022/05/06 10:19:27;;;;;;;6.90;6.17;;;18.90;99.90;;;;;;4972767;28;20464;-71
2022/05/06 10:21:56;;;;;;;6.10;5.70;;;18.90;99.90;;;;;;4977762;28;20463;-70
2022/05/06 10:24:23;;;;;;;6.90;6.30;;;18.80;99.90;;;;;;4973291;28;21031;-70
2022/05/06 10:26:51;;;;;;;7.67;6.90;;;18.70;99.90;;;;;;4973132;28;20471;-72
2022/05/06 10:32:58;;;;;;;6.67;6.00;;;18.70;99.90;;;;;;4972978;28;20450;-71
2022/05/06 10:35:39;;;;;;;7.90;6.63;;;18.70;99.90;;;;;;4972618;28;20546;-71
2022/05/06 10:38:46;;;;;;;6.80;6.20;;;18.70;99.90;;;;;;4971733;28;20460;-71
2022/05/06 10:41:24;;;;;;;8.17;7.27;;;18.50;99.90;;;;;;4942940;28;20471;-71
2022/05/06 10:43:54;;;;;;;8.50;6.27;;;18.40;99.90;;;;;;4972649;28;20484;-71
2022/05/06 10:46:39;;;;;;;7.40;5.60;;;18.50;99.90;;;;;;4972682;28;20475;-71
2022/05/06 10:49:51;;;;;;;5.90;5.33;;;18.60;99.90;;;;;;4972548;28;20498;-73
2022/05/06 10:52:44;;;;;;;6.10;5.37;;;18.70;99.90;;;;;;4971507;28;20475;-73
2022/05/06 10:55:14;;;;;;;6.20;5.27;;;18.70;99.90;;;;;;4972737;28;20543;-71
2022/05/06 10:57:59;;;;;;;5.43;4.77;;;18.80;99.90;;;;;;4972803;28;20795;-71
2022/05/06 11:00:27;;;;;;;5.73;5.33;;;18.80;99.90;;;;;;4971830;28;20471;-70
2022/05/06 11:02:55;;;;;;;5.80;5.40;;;18.90;99.90;;;;;;4972359;28;20570;-70
2022/05/06 11:05:24;;;;;;;5.57;5.17;;;19.10;99.90;;;;;;4971580;28;20471;-71
2022/05/06 11:07:54;;;;;;;5.30;4.97;;;19.20;99.90;;;;;;4972161;28;20555;-71
2022/05/06 11:10:24;;;;;;;5.80;5.30;;;19.30;99.90;;;;;;4971173;28;20551;-71
2022/05/06 11:12:53;;;;;;;6.67;5.40;;;19.20;99.90;;;;;;4971963;28;20464;-72
2022/05/06 11:15:21;;;;;;;5.90;5.40;;;19.10;99.90;;;;;;4972245;28;20468;-71
2022/05/06 11:17:49;;;;;;;6.20;5.60;;;19.10;99.90;;;;;;4972096;28;20490;-71
2022/05/06 11:20:18;;;;;;;6.40;5.80;;;19.10;99.90;;;;;;4971473;28;20890;-72
2022/05/06 11:22:59;;;;;;;7.07;6.40;;;19.20;99.90;;;;;;4972299;28;20468;-72
2022/05/06 11:25:29;;;;;;;5.47;5.00;;;19.30;99.90;;;;;;4972122;28;20463;-70
2022/05/06 11:27:58;;;;;;;8.23;6.03;;;19.40;99.90;;;;;;4971947;28;20947;-72
2022/05/06 11:30:27;;;;;;;7.13;6.50;;;19.50;99.90;;;;;;4971540;28;20584;-70
2022/05/06 11:32:55;;;;;;;6.43;5.93;;;19.40;99.90;;;;;;4972164;28;20475;-71
2022/05/06 11:35:33;;;;;;;6.33;5.00;;;19.50;99.90;;;;;;4972036;28;20522;-70
2022/05/06 11:38:01;;;;;;;7.23;5.80;;;19.70;99.90;;;;;;4971743;28;20558;-71
2022/05/06 11:40:37;;;;;;;5.87;5.27;;;19.70;99.90;;;;;;4971423;28;20464;-70
2022/05/06 11:43:09;;;;;;;4.77;4.40;;;19.60;99.90;;;;;;4959510;28;20919;-70
2022/05/06 11:48:24;;;;;;;5.80;5.40;;;19.60;99.90;;;;;;4972849;28;20550;-70
2022/05/06 11:50:56;;;;;;;6.10;5.60;;;19.60;99.90;;;;;;4975878;28;20963;-71
2022/05/06 11:53:26;;;;;;;6.03;5.53;;;19.50;99.90;;;;;;4975270;28;20498;-71
2022/05/06 11:55:55;;;;;;;5.07;4.77;;;19.50;99.90;;;;;;4975509;28;20463;-72
2022/05/06 11:58:22;;;;;;;5.20;4.90;;;19.70;99.90;;;;;;4975635;28;20469;-71
2022/05/06 12:00:51;;;;;;;4.80;4.40;;;19.70;99.90;;;;;;4974876;28;20464;-71
2022/05/06 12:03:19;;;;;;;4.70;4.40;;;19.90;99.90;;;;;;4975402;28;20487;-72
2022/05/06 12:05:59;;;;;;;4.50;4.30;;;20.10;99.90;;;;;;4974866;28;20480;-71
2022/05/06 12:08:27;;;;;;;4.43;4.03;;;20.20;99.50;;;;;;4975174;28;20463;-72
2022/05/06 12:11:01;;;;;;;4.27;3.97;;;20.10;99.90;;;;;;4975200;28;20495;-71
2022/05/06 12:13:35;;;;;;;4.50;4.20;;;20.10;99.90;;;;;;4975595;28;20499;-71
2022/05/06 12:16:06;;;;;;;5.80;5.30;;;20.00;99.90;;;;;;4975318;28;20827;-72
2022/05/06 12:18:33;;;;;;;4.87;4.40;;;20.10;99.90;;;;;;4975706;28;20626;-71
2022/05/06 12:21:00;;;;;;;4.93;4.63;;;20.00;99.90;;;;;;4970181;28;20699;-73
2022/05/06 12:23:29;;;;;;;4.77;4.37;;;20.00;99.90;;;;;;4975006;28;21059;-72
2022/05/06 12:25:56;;;;;;;3.93;3.73;;;20.10;99.90;;;;;;4975217;28;20468;-70
2022/05/06 12:28:24;;;;;;;3.97;3.77;;;20.20;99.40;;;;;;4974803;28;20479;-72
2022/05/06 12:30:56;;;;;;;4.63;4.23;;;20.30;99.80;;;;;;4974252;28;20463;-69
2022/05/06 12:33:35;;;;;;;4.17;3.97;;;20.40;99.90;;;;;;4975057;28;20498;-70
2022/05/06 12:36:04;;;;;;;4.20;4.00;;;20.40;99.70;;;;;;4974633;28;20793;-71
2022/05/06 12:38:47;;;;;;;4.13;3.93;;;20.30;99.60;;;;;;4975039;28;20460;-72
2022/05/06 12:41:18;;;;;;;4.40;4.10;;;20.30;99.20;;;;;;4974491;28;20463;-71
2022/05/06 12:43:46;;;;;;;5.00;4.70;;;20.30;99.90;;;;;;4975333;28;20511;-70
2022/05/06 12:46:25;;;;;;;6.57;5.77;;;20.20;99.90;;;;;;4975223;28;20468;-71
2022/05/06 12:51:35;;;;;;;6.67;5.70;;;20.20;99.90;;;;;;4974032;28;20831;-71
2022/05/06 12:54:02;;;;;;;5.47;4.97;;;20.20;99.90;;;;;;4976406;28;20557;-71
2022/05/06 12:56:29;;;;;;;5.50;5.10;;;20.30;99.90;;;;;;4976231;28;20498;-71
2022/05/06 12:58:56;;;;;;;5.63;5.23;;;20.30;99.60;;;;;;4976713;28;20511;-71
2022/05/06 13:01:23;;;;;;;6.70;5.00;;;20.40;99.90;;;;;;4975065;28;20834;-71
2022/05/06 13:03:50;;;;;;;4.93;4.50;;;20.50;99.20;;;;;;4975579;28;20487;-70
2022/05/06 13:06:17;;;;;;;7.87;7.13;;;20.40;98.70;;;;;;4974091;28;20464;-70
2022/05/06 13:08:43;;;;;;;6.50;5.67;;;20.50;98.90;;;;;;4967044;28;20473;-71
2022/05/06 13:11:10;;;;;;;4.30;4.10;;;20.60;99.10;;;;;;4966525;28;20468;-70
2022/05/06 13:13:37;;;;;;;5.60;5.20;;;20.70;98.90;;;;;;4974306;28;20493;-70
2022/05/06 13:16:05;;;;;;;5.53;4.83;;;20.80;98.20;;;;;;4974321;28;20521;-70
2022/05/06 13:18:33;;;;;;;5.80;5.30;;;20.90;98.30;;;;;;4974256;28;20452;-70
2022/05/06 13:20:59;;;;;;;5.27;4.87;;;21.10;98.50;;;;;;4973675;28;20976;-70
2022/05/06 13:23:26;;;;;;;4.97;4.70;;;21.20;98.30;;;;;;4976046;28;20488;-72
2022/05/06 13:25:53;;;;;;;4.53;4.23;;;21.30;97.80;;;;;;4977664;28;20472;-71
2022/05/06 13:28:20;;;;;;;4.07;3.77;;;21.40;97.60;;;;;;4976996;28;20468;-72
2022/05/06 13:30:46;;;;;;;4.63;4.40;;;21.60;97.40;;;;;;4976422;28;20494;-71
2022/05/06 13:33:14;;;;;;;4.10;3.90;;;21.60;96.60;;;;;;4976301;28;20497;-72
2022/05/06 13:35:42;;;;;;;4.40;4.07;;;21.60;95.90;;;;;;4976488;28;20546;-71
2022/05/06 13:38:09;;;;;;;4.57;4.37;;;21.60;95.50;;;;;;4976457;28;20467;-71
2022/05/06 13:40:36;;;;;;;4.50;4.20;;;21.70;95.60;;;;;;4977604;28;20675;-71
2022/05/06 13:43:03;;;;;;;4.33;4.03;;;21.80;95.10;;;;;;4967878;28;20545;-71
2022/05/06 13:45:30;;;;;;;3.60;3.50;;;21.90;95.20;;;;;;4976247;28;20483;-70
2022/05/06 13:47:57;;;;;;;3.53;3.43;;;21.90;94.80;;;;;;4977920;28;20464;-71
2022/05/06 13:50:25;;;;;;;3.43;3.33;;;21.90;94.50;;;;;;4973576;28;20550;-71
2022/05/06 13:52:51;;;;;;;4.00;3.80;;;22.00;95.20;;;;;;4973776;28;20467;-71
2022/05/06 13:55:18;;;;;;;3.50;3.30;;;22.00;93.90;;;;;;4973904;28;20468;-71
2022/05/06 14:00:30;;;;;;;3.77;3.47;;;22.00;94.10;;;;;;4973029;28;20785;-71
2022/05/06 14:02:58;;;;;;;3.80;3.60;;;22.00;93.80;;;;;;4973282;28;20484;-72
2022/05/06 14:05:26;;;;;;;4.40;4.00;;;22.10;93.90;;;;;;4973000;28;20479;-72
2022/05/06 14:07:58;;;;;;;4.23;4.00;;;22.10;93.40;;;;;;4972895;28;20471;-72
2022/05/06 14:10:24;;;;;;;4.13;3.83;;;22.10;94.00;;;;;;4972761;28;20491;-72
2022/05/06 14:12:51;;;;;;;6.03;5.57;;;22.00;93.60;;;;;;4971724;28;20471;-71
2022/05/06 14:15:18;;;;;;;6.20;5.90;;;21.90;93.20;;;;;;4973300;28;20541;-72
2022/05/06 14:17:44;;;;;;;11.63;10.60;;;21.80;93.10;;;;;;4973024;28;20522;-72
2022/05/06 14:20:13;;;;;;;8.27;7.57;;;21.80;93.30;;;;;;4972454;28;20514;-72
2022/05/06 14:22:41;;;;;;;4.73;4.30;;;21.80;92.90;;;;;;4972430;28;20467;-72
2022/05/06 14:25:09;;;;;;;3.60;3.50;;;21.90;92.40;;;;;;4972923;28;20470;-71
2022/05/06 14:27:35;;;;;;;4.60;4.00;;;22.00;92.90;;;;;;4972622;28;20890;-72
2022/05/06 14:30:02;;;;;;;3.43;3.23;;;22.10;92.50;;;;;;4972249;28;20582;-72
2022/05/06 14:32:36;;;;;;;3.50;3.40;;;22.10;92.10;;;;;;5082782;27;20547;-72
2022/05/06 14:35:16;;;;;;;3.37;3.20;;;22.00;91.80;;;;;;5068253;28;20459;-74
2022/05/06 14:37:43;;;;;;;4.00;3.80;;;21.90;92.20;;;;;;5067288;28;20550;-72
2022/05/06 14:40:11;;;;;;;4.10;3.80;;;21.90;91.90;;;;;;5067284;28;20913;-72
2022/05/06 14:42:38;;;;;;;3.67;3.37;;;21.80;92.10;;;;;;5067639;28;20873;-73
2022/05/06 14:45:05;;;;;;;4.33;3.57;;;21.70;92.20;;;;;;5067766;28;20485;-73
2022/05/06 14:47:32;;;;;;;3.43;3.23;;;21.80;92.00;;;;;;5067446;28;20455;-73
2022/05/06 14:50:00;;;;;;;3.70;3.50;;;21.80;92.40;;;;;;5067691;28;20463;-72
2022/05/06 14:52:27;;;;;;;4.50;3.30;;;21.70;91.40;;;;;;5066799;28;20497;-72
2022/05/06 14:54:54;;;;;;;3.37;3.07;;;21.60;91.90;;;;;;5067850;28;20491;-72
2022/05/06 14:57:20;;;;;;;3.40;3.30;;;21.70;92.20;;;;;;5067740;28;20464;-73
2022/05/06 14:59:47;;;;;;;5.23;3.90;;;21.80;91.80;;;;;;5068845;28;20464;-71
2022/05/06 15:02:13;;;;;;;3.33;3.13;;;21.80;91.70;;;;;;5079482;28;20527;-71
2022/05/06 15:04:40;;;;;;;3.10;3.00;;;21.80;91.10;;;;;;5078920;28;20480;-71
2022/05/06 15:07:08;;;;;;;3.57;2.93;;;21.80;91.60;;;;;;5068276;28;20463;-71
2022/05/06 15:09:35;;;;;;;2.67;2.57;;;21.80;90.60;;;;;;5059180;28;20979;-72
2022/05/06 15:12:03;;;;;;;5.70;3.20;;;21.80;91.10;;;;;;5066991;28;20591;-71
2022/05/06 15:14:31;;;;;;;2.80;2.60;;;21.90;91.10;;;;;;5067346;28;20479;-71
2022/05/06 15:17:03;;;;;;;4.00;3.30;;;21.80;90.60;;;;;;5067370;28;20548;-71
2022/05/06 15:19:31;;;;;;;2.80;2.70;;;21.70;90.50;;;;;;5067103;28;20966;-71
2022/05/06 15:22:01;;;;;;;2.90;2.80;;;21.70;91.60;;;;;;5066298;28;20495;-71
2022/05/06 15:24:29;;;;;;;3.20;3.00;;;21.70;91.60;;;;;;5066954;28;20823;-71
2022/05/06 15:26:57;;;;;;;3.40;3.30;;;21.80;91.30;;;;;;5066770;28;20467;-71
2022/05/06 15:29:24;;;;;;;4.97;3.33;;;21.70;91.10;;;;;;5067020;28;20941;-71
2022/05/06 15:31:50;;;;;;;5.83;3.90;;;21.80;91.00;;;;;;5066234;28;20541;-71
2022/05/06 15:34:17;;;;;;;5.20;2.77;;;21.70;91.10;;;;;;5067004;28;20488;-72
2022/05/06 15:36:43;;;;;;;3.20;3.00;;;21.80;91.20;;;;;;5066131;28;20529;-71
2022/05/06 15:39:10;;;;;;;2.50;2.47;;;21.70;91.00;;;;;;5066795;28;20509;-71
2022/05/06 15:41:38;;;;;;;3.00;2.90;;;21.70;91.20;;;;;;5065943;28;20456;-72
2022/05/06 15:44:05;;;;;;;3.37;3.27;;;21.70;91.60;;;;;;5052763;28;20539;-70
2022/05/06 15:46:32;;;;;;;2.90;2.80;;;21.70;90.90;;;;;;5053025;28;20471;-71
2022/05/06 15:48:59;;;;;;;3.17;2.80;;;21.70;91.00;;;;;;5053475;28;20522;-70
2022/05/06 15:51:25;;;;;;;2.47;2.37;;;21.70;91.00;;;;;;5052166;28;21013;-72
2022/05/06 15:53:52;;;;;;;2.70;2.23;;;21.60;90.80;;;;;;5053374;28;20490;-71
2022/05/06 15:56:19;;;;;;;3.17;2.97;;;21.60;91.70;;;;;;5053266;28;20529;-71
2022/05/06 15:58:47;;;;;;;2.50;2.50;;;21.50;91.50;;;;;;5046831;28;20546;-71
2022/05/06 16:01:14;;;;;;;3.03;2.83;;;21.50;91.40;;;;;;5052410;28;20505;-72
2022/05/06 16:03:41;;;;;;;2.93;2.83;;;21.50;91.50;;;;;;5053385;28;20483;-71
2022/05/06 16:06:08;;;;;;;3.13;3.10;;;21.50;91.80;;;;;;5052255;28;20460;-74
2022/05/06 16:08:34;;;;;;;3.40;3.30;;;21.50;92.30;;;;;;5053158;28;20831;-71
2022/05/06 16:11:01;;;;;;;2.70;2.60;;;21.40;91.70;;;;;;5052321;28;20514;-71
2022/05/06 16:13:28;;;;;;;2.67;2.63;;;21.30;91.40;;;;;;5066875;22;20504;-68
2022/05/06 16:15:56;;;;;;;2.70;2.60;;;21.20;91.20;;;;;;5014863;28;20470;-68
2022/05/06 16:18:23;;;;;;;2.40;2.40;;;21.10;90.80;;;;;;5015503;28;20458;-68
2022/05/06 16:20:50;;;;;;;2.70;2.60;;;21.00;91.20;;;;;;5014304;28;20516;-68
2022/05/06 16:23:17;;;;;;;2.93;2.83;;;21.00;91.30;;;;;;5018432;28;20507;-69
2022/05/06 16:25:45;;;;;;;3.00;2.90;;;21.00;91.80;;;;;;5034655;28;20453;-68
2022/05/06 16:28:12;;;;;;;2.90;2.80;;;21.00;91.40;;;;;;5032867;28;20496;-68
2022/05/06 16:30:39;;;;;;;2.87;2.77;;;20.90;91.00;;;;;;5032212;28;20614;-68
2022/05/06 16:33:08;;;;;;;3.20;3.10;;;20.90;90.80;;;;;;5027364;28;20567;-68
2022/05/06 16:38:23;;;;;;;6.97;5.10;;;20.90;91.50;;;;;;5012393;28;20528;-69
2022/05/06 16:40:51;;;;;;;4.77;4.33;;;20.80;91.90;;;;;;5012050;28;20919;-69
2022/05/06 16:43:19;;;;;;;5.30;3.93;;;20.80;91.70;;;;;;5012804;28;21072;-68
2022/05/06 16:45:45;;;;;;;3.00;2.90;;;20.80;91.70;;;;;;5012968;28;20489;-68
2022/05/06 16:48:14;;;;;;;2.90;2.80;;;20.70;91.30;;;;;;5012695;28;20598;-68
2022/05/06 16:50:41;;;;;;;5.07;2.80;;;20.60;91.30;;;;;;5011892;28;20466;-68
2022/05/06 16:53:08;;;;;;;2.87;2.33;;;20.60;91.80;;;;;;5011975;28;20512;-69
2022/05/06 16:55:35;;;;;;;3.07;2.90;;;20.60;91.90;;;;;;5011307;28;20473;-69
2022/05/06 16:58:02;;;;;;;2.90;2.80;;;20.60;92.50;;;;;;5012350;28;20470;-69
2022/05/06 17:00:29;;;;;;;2.70;2.60;;;20.60;91.80;;;;;;5011643;28;20473;-69
2022/05/06 17:02:57;;;;;;;3.10;3.00;;;20.60;91.90;;;;;;5011957;28;20501;-69
2022/05/06 17:05:25;;;;;;;2.77;2.67;;;20.60;92.00;;;;;;5011497;28;20466;-68
2022/05/06 17:07:52;;;;;;;2.87;2.77;;;20.70;91.80;;;;;;5011139;28;20470;-68
2022/05/06 17:10:19;;;;;;;3.17;2.97;;;20.70;91.80;;;;;;5010833;28;20954;-68
2022/05/06 17:12:45;;;;;;;2.87;2.70;;;20.70;91.60;;;;;;5011701;28;20481;-68
2022/05/06 17:15:16;;;;;;;2.87;2.70;;;20.60;91.10;;;;;;5011640;28;20863;-68
2022/05/06 17:17:43;;;;;;;3.50;3.40;;;20.60;91.50;;;;;;5011798;28;20466;-68
2022/05/06 17:20:12;;;;;;;3.33;3.20;;;20.60;91.70;;;;;;5010953;28;20458;-68
2022/05/06 17:22:42;;;;;;;2.97;2.87;;;20.50;91.50;;;;;;5010545;28;20468;-68
2022/05/06 17:25:09;;;;;;;3.87;3.47;;;20.50;92.00;;;;;;5011336;28;20474;-68
2022/05/06 17:27:36;;;;;;;4.30;3.90;;;20.50;92.10;;;;;;5011302;28;20584;-68